Time;durP1;ratioP1;P1;durP2;ratioP2;P2;SDS_P1;SDS_P2;PMS_P1;PMS_P2;Temp;Humidity;BMP_temperature;BMP_pressure;BME280_temperature;BME280_humidity;BME280_pressure;Samples;Min_cycle;Max_cycle;Signal;HPM_P1;HPM_P2
2021/09/24 00:01:06;;;;;;;7.00;4.95;;;10.40;75.80;;;;;;5135797;28;20023;-37
2021/09/24 00:03:32;;;;;;;8.00;4.63;;;10.30;75.90;;;;;;5136357;28;20372;-37
2021/09/24 00:05:58;;;;;;;7.22;4.38;;;10.30;75.90;;;;;;5135820;28;20461;-40
2021/09/24 00:08:25;;;;;;;6.78;4.35;;;10.30;76.00;;;;;;5136520;28;20028;-39
2021/09/24 00:10:51;;;;;;;9.15;5.05;;;10.30;76.00;;;;;;5135725;28;20074;-40
2021/09/24 00:13:16;;;;;;;9.15;5.18;;;10.20;76.10;;;;;;5136448;28;20080;-37
2021/09/24 00:15:42;;;;;;;5.93;4.32;;;10.20;76.10;;;;;;5136115;28;20310;-39
2021/09/24 00:18:08;;;;;;;7.15;4.68;;;10.20;76.20;;;;;;5136470;28;20023;-39
2021/09/24 00:20:34;;;;;;;8.73;4.72;;;10.20;76.40;;;;;;5136353;28;20032;-39
2021/09/24 00:23:00;;;;;;;9.15;4.55;;;10.10;76.40;;;;;;5136184;28;20126;-36
2021/09/24 00:25:26;;;;;;;6.43;4.68;;;10.10;76.40;;;;;;5135803;28;20027;-36
2021/09/24 00:27:52;;;;;;;6.47;4.15;;;10.10;76.60;;;;;;5136137;28;20038;-40
2021/09/24 00:30:17;;;;;;;7.82;4.45;;;10.00;76.60;;;;;;5135707;28;20058;-37
2021/09/24 00:32:43;;;;;;;6.90;4.45;;;10.10;76.70;;;;;;5136027;28;20028;-40
2021/09/24 00:35:09;;;;;;;8.30;4.68;;;10.00;76.70;;;;;;5136204;28;20030;-36
2021/09/24 00:37:35;;;;;;;12.30;4.80;;;10.00;76.70;;;;;;5137199;27;20084;-37
2021/09/24 00:40:00;;;;;;;6.57;4.65;;;10.00;76.70;;;;;;5139628;27;20442;-39
2021/09/24 00:42:26;;;;;;;7.65;4.65;;;9.90;76.80;;;;;;5139600;27;20076;-41
2021/09/24 00:44:52;;;;;;;6.82;4.95;;;9.90;76.90;;;;;;5139336;27;20110;-40
2021/09/24 00:47:20;;;;;;;7.07;4.95;;;9.90;77.10;;;;;;5139238;27;20373;-41
2021/09/24 00:49:47;;;;;;;11.63;5.32;;;9.90;77.20;;;;;;5138719;27;20027;-41
2021/09/24 00:52:13;;;;;;;7.70;5.40;;;9.90;77.30;;;;;;5139231;27;20114;-41
2021/09/24 00:54:40;;;;;;;11.65;5.97;;;9.80;77.30;;;;;;5138911;27;20087;-41
2021/09/24 00:57:06;;;;;;;8.55;5.97;;;9.80;77.50;;;;;;5139252;27;20031;-41
2021/09/24 00:59:33;;;;;;;7.97;5.85;;;9.80;77.60;;;;;;5138854;27;20077;-41
2021/09/24 01:01:58;;;;;;;8.63;5.25;;;9.80;77.60;;;;;;5139031;27;20031;-40
2021/09/24 01:04:25;;;;;;;7.70;5.38;;;9.70;77.60;;;;;;5138838;27;20035;-37
2021/09/24 01:06:51;;;;;;;9.85;6.07;;;9.70;77.70;;;;;;5138680;27;20023;-37
2021/09/24 01:09:17;;;;;;;8.15;5.47;;;9.70;77.70;;;;;;5138601;27;20035;-36
2021/09/24 01:11:44;;;;;;;8.43;5.55;;;9.70;77.70;;;;;;5138749;27;20318;-36
2021/09/24 01:14:10;;;;;;;8.88;5.75;;;9.70;77.70;;;;;;5138777;27;20108;-36
2021/09/24 01:16:35;;;;;;;10.25;5.53;;;9.70;77.70;;;;;;5138741;27;20035;-41
2021/09/24 01:19:01;;;;;;;8.80;5.88;;;9.70;77.80;;;;;;5138897;27;20306;-37
2021/09/24 01:21:27;;;;;;;7.22;5.53;;;9.70;77.80;;;;;;5138844;27;20027;-37
2021/09/24 01:23:52;;;;;;;7.30;5.53;;;9.70;77.80;;;;;;5138958;27;20387;-40
2021/09/24 01:26:18;;;;;;;8.80;5.78;;;9.60;77.80;;;;;;5138389;27;20388;-40
2021/09/24 01:28:44;;;;;;;8.10;6.00;;;9.60;77.90;;;;;;5138459;27;20031;-40
2021/09/24 01:31:15;;;;;;;8.07;5.50;;;9.60;77.90;;;;;;5138335;27;20035;-40
2021/09/24 01:33:45;;;;;;;8.55;5.85;;;9.60;78.00;;;;;;5138554;27;20043;-41
2021/09/24 01:36:11;;;;;;;11.05;6.13;;;9.60;78.10;;;;;;5138493;27;20039;-41
2021/09/24 01:38:38;;;;;;;9.18;6.22;;;9.50;78.10;;;;;;5138850;27;20054;-37
2021/09/24 01:41:04;;;;;;;8.20;5.85;;;9.50;78.20;;;;;;5138399;27;20027;-37
2021/09/24 01:43:31;;;;;;;9.20;6.30;;;9.50;78.30;;;;;;5138312;27;20039;-37
2021/09/24 01:45:57;;;;;;;9.32;6.30;;;9.50;78.40;;;;;;5137845;27;20026;-37
2021/09/24 01:48:22;;;;;;;10.27;6.30;;;9.50;78.40;;;;;;5138253;27;20050;-40
2021/09/24 01:50:48;;;;;;;11.52;6.45;;;9.50;78.50;;;;;;5137581;27;20019;-37
2021/09/24 01:53:14;;;;;;;11.32;6.13;;;9.40;78.60;;;;;;5138104;27;20314;-40
2021/09/24 01:55:40;;;;;;;8.60;6.45;;;9.40;78.70;;;;;;5137734;27;20576;-37
2021/09/24 01:58:06;;;;;;;10.13;6.78;;;9.40;78.80;;;;;;5137881;27;20108;-37
2021/09/24 02:00:31;;;;;;;10.70;6.28;;;9.40;78.90;;;;;;5138291;27;20115;-37
2021/09/24 02:02:57;;;;;;;9.48;6.43;;;9.40;79.00;;;;;;5138284;27;20023;-40
2021/09/24 02:05:23;;;;;;;11.50;6.28;;;9.40;79.10;;;;;;5138132;27;20101;-41
2021/09/24 02:07:48;;;;;;;9.43;6.35;;;9.40;79.10;;;;;;5138079;27;20023;-36
2021/09/24 02:10:14;;;;;;;8.70;6.07;;;9.40;79.20;;;;;;5137642;27;20369;-36
2021/09/24 02:12:40;;;;;;;11.10;5.60;;;9.40;79.20;;;;;;5137962;27;20035;-39
2021/09/24 02:15:06;;;;;;;9.95;5.80;;;9.40;79.20;;;;;;5138046;27;20027;-36
2021/09/24 02:17:32;;;;;;;11.18;6.35;;;9.40;79.30;;;;;;5137781;27;20031;-37
2021/09/24 02:19:57;;;;;;;8.48;5.95;;;9.40;79.30;;;;;;5137367;27;20042;-39
2021/09/24 02:22:23;;;;;;;14.35;6.85;;;9.40;79.20;;;;;;5137723;27;20110;-39
2021/09/24 02:24:49;;;;;;;8.95;6.00;;;9.50;79.30;;;;;;5137639;27;20035;-37
2021/09/24 02:27:14;;;;;;;8.93;5.93;;;9.40;79.20;;;;;;5137556;27;20323;-40
2021/09/24 02:29:40;;;;;;;9.43;6.28;;;9.40;79.10;;;;;;5137299;27;20035;-40
2021/09/24 02:32:06;;;;;;;9.68;6.30;;;9.50;79.70;;;;;;5137376;27;20352;-40
2021/09/24 02:34:32;;;;;;;14.93;6.20;;;9.50;79.20;;;;;;5137481;27;20027;-40
2021/09/24 02:36:57;;;;;;;11.82;6.85;;;9.50;79.20;;;;;;5137328;27;20108;-37
2021/09/24 02:39:23;;;;;;;13.70;6.75;;;9.50;79.10;;;;;;5118811;27;20035;-41
2021/09/24 02:41:49;;;;;;;11.23;6.28;;;9.60;79.20;;;;;;5137178;27;20027;-38
2021/09/24 02:44:15;;;;;;;9.57;6.20;;;9.60;79.10;;;;;;5137480;27;20035;-40
2021/09/24 02:46:42;;;;;;;9.93;6.40;;;9.60;79.10;;;;;;5136771;27;20027;-39
2021/09/24 02:49:08;;;;;;;11.02;7.45;;;9.60;78.90;;;;;;5137293;27;20118;-37
2021/09/24 02:51:34;;;;;;;11.13;7.00;;;9.60;78.90;;;;;;5136782;27;20051;-37
2021/09/24 02:53:59;;;;;;;13.25;7.28;;;9.70;78.90;;;;;;5136784;27;20312;-40
2021/09/24 02:56:25;;;;;;;9.60;6.63;;;9.70;78.80;;;;;;5137186;27;20096;-40
2021/09/24 02:58:51;;;;;;;16.17;7.78;;;9.70;78.80;;;;;;5136846;27;20038;-40
2021/09/24 03:01:17;;;;;;;14.10;6.88;;;9.70;78.70;;;;;;5136780;27;20112;-38
2021/09/24 03:03:43;;;;;;;14.32;7.13;;;9.70;78.70;;;;;;5136925;27;20039;-39
2021/09/24 03:06:09;;;;;;;13.27;7.00;;;9.70;78.70;;;;;;5136794;27;20039;-40
2021/09/24 03:08:34;;;;;;;16.15;6.95;;;9.80;78.70;;;;;;5137089;27;20377;-38
2021/09/24 03:11:00;;;;;;;12.65;6.93;;;9.80;78.70;;;;;;5136354;27;20035;-41
2021/09/24 03:13:26;;;;;;;14.63;7.28;;;9.80;78.60;;;;;;5137033;27;20027;-38
2021/09/24 03:15:54;;;;;;;10.10;7.03;;;9.80;78.60;;;;;;5136510;27;20023;-37
2021/09/24 03:18:20;;;;;;;16.25;6.82;;;9.90;78.70;;;;;;5137073;27;20050;-39
2021/09/24 03:20:45;;;;;;;12.65;6.78;;;9.80;78.60;;;;;;5136557;27;20027;-41
2021/09/24 03:23:11;;;;;;;11.63;7.07;;;9.80;78.60;;;;;;5136897;27;20463;-41
2021/09/24 03:25:37;;;;;;;13.68;7.57;;;9.90;78.70;;;;;;5136787;28;20023;-38
2021/09/24 03:28:03;;;;;;;16.10;8.45;;;9.80;78.60;;;;;;5136734;28;20034;-38
2021/09/24 03:30:28;;;;;;;12.93;7.47;;;9.80;78.70;;;;;;5136340;28;20030;-40
2021/09/24 03:32:54;;;;;;;14.27;7.68;;;9.80;78.70;;;;;;5136502;28;20031;-38
2021/09/24 03:35:20;;;;;;;15.27;8.25;;;9.80;78.80;;;;;;5136194;28;20031;-40
2021/09/24 03:37:45;;;;;;;16.58;7.10;;;9.90;78.80;;;;;;5136532;28;20038;-41
2021/09/24 03:40:12;;;;;;;14.98;7.32;;;9.90;78.80;;;;;;5136204;28;20031;-38
2021/09/24 03:42:38;;;;;;;15.05;7.03;;;9.90;78.70;;;;;;5136478;28;20041;-40
2021/09/24 03:45:04;;;;;;;16.02;7.90;;;9.90;78.70;;;;;;5136210;28;20330;-41
2021/09/24 03:47:30;;;;;;;13.43;7.05;;;9.90;78.70;;;;;;5136039;28;20040;-38
2021/09/24 03:49:55;;;;;;;12.13;7.53;;;9.90;78.50;;;;;;5136070;28;20176;-40
2021/09/24 03:52:21;;;;;;;14.10;7.22;;;10.00;78.60;;;;;;5136421;28;20027;-41
2021/09/24 03:54:47;;;;;;;10.75;6.65;;;10.00;78.60;;;;;;5135783;28;20043;-40
2021/09/24 03:57:12;;;;;;;11.90;7.22;;;10.00;78.60;;;;;;5136139;28;20038;-41
2021/09/24 03:59:38;;;;;;;16.33;7.47;;;10.00;78.50;;;;;;5135904;28;20037;-41
2021/09/24 04:02:04;;;;;;;14.70;7.75;;;10.00;78.50;;;;;;5136194;28;20039;-41
2021/09/24 04:04:29;;;;;;;15.63;8.38;;;10.00;78.50;;;;;;5135706;28;20035;-37
2021/09/24 04:06:55;;;;;;;15.27;7.35;;;10.00;78.40;;;;;;5135999;28;20039;-41
2021/09/24 04:09:21;;;;;;;10.73;7.43;;;10.00;78.50;;;;;;5135804;28;20110;-40
2021/09/24 04:11:46;;;;;;;13.30;7.82;;;10.00;78.50;;;;;;5135837;27;20370;-40
2021/09/24 04:14:12;;;;;;;11.55;7.35;;;10.00;78.40;;;;;;5140047;27;20059;-37
2021/09/24 04:16:37;;;;;;;11.90;7.20;;;10.10;78.50;;;;;;5139847;27;20038;-40
2021/09/24 04:19:03;;;;;;;11.82;6.93;;;10.10;78.40;;;;;;5139878;27;20092;-41
2021/09/24 04:21:29;;;;;;;11.27;7.32;;;10.10;78.50;;;;;;5139751;27;20033;-37
2021/09/24 04:23:54;;;;;;;11.90;7.28;;;10.10;78.40;;;;;;5139588;27;20118;-37
2021/09/24 04:26:20;;;;;;;12.43;7.78;;;10.10;78.90;;;;;;5139468;27;20031;-41
2021/09/24 04:28:46;;;;;;;12.00;7.22;;;10.20;78.40;;;;;;5121292;27;20345;-37
2021/09/24 04:31:11;;;;;;;12.57;8.38;;;10.20;78.30;;;;;;5139296;27;20031;-38
2021/09/24 04:33:37;;;;;;;14.15;8.10;;;10.20;78.40;;;;;;5139695;27;20027;-37
2021/09/24 04:36:03;;;;;;;13.73;8.07;;;10.20;78.30;;;;;;5139207;27;20335;-38
2021/09/24 04:38:29;;;;;;;15.07;8.07;;;10.20;78.40;;;;;;5137800;27;20309;-41
2021/09/24 04:40:54;;;;;;;12.07;8.13;;;10.20;78.30;;;;;;5121762;27;20076;-37
2021/09/24 04:43:20;;;;;;;14.55;8.27;;;10.30;78.40;;;;;;5118880;28;20027;-38
2021/09/24 04:45:46;;;;;;;14.35;9.02;;;10.30;78.40;;;;;;5125564;27;20115;-39
2021/09/24 04:48:11;;;;;;;14.73;9.45;;;10.30;78.40;;;;;;5120860;27;20411;-38
2021/09/24 04:50:37;;;;;;;17.15;9.18;;;10.30;78.40;;;;;;5130146;27;20023;-38
2021/09/24 04:53:03;;;;;;;14.48;8.40;;;10.40;78.50;;;;;;5118798;28;20078;-38
2021/09/24 04:55:29;;;;;;;13.10;8.02;;;10.40;78.50;;;;;;5118190;28;20101;-41
2021/09/24 04:57:54;;;;;;;15.05;8.85;;;10.40;78.80;;;;;;5118675;28;20039;-41
2021/09/24 05:00:20;;;;;;;15.52;10.00;;;10.40;78.90;;;;;;5118300;28;20038;-41
2021/09/24 05:02:46;;;;;;;14.63;8.73;;;10.40;79.00;;;;;;5118492;28;20039;-37
2021/09/24 05:05:12;;;;;;;15.52;9.27;;;10.40;79.30;;;;;;5118081;28;20397;-38
2021/09/24 05:07:38;;;;;;;18.60;10.90;;;10.40;79.50;;;;;;5118209;28;20100;-38
2021/09/24 05:10:05;;;;;;;13.68;8.77;;;10.50;79.80;;;;;;5118158;28;20051;-41
2021/09/24 05:12:32;;;;;;;13.80;8.95;;;10.50;79.80;;;;;;5118326;28;20459;-40
2021/09/24 05:14:58;;;;;;;15.20;9.82;;;10.50;80.10;;;;;;5118180;28;20073;-41
2021/09/24 05:17:24;;;;;;;15.63;8.50;;;10.40;80.20;;;;;;5118189;28;20040;-38
2021/09/24 05:19:50;;;;;;;14.07;9.27;;;10.50;80.50;;;;;;5118016;28;20044;-38
2021/09/24 05:22:16;;;;;;;18.60;8.57;;;10.50;80.70;;;;;;5118033;28;20118;-38
2021/09/24 05:24:42;;;;;;;15.48;9.40;;;10.50;80.80;;;;;;5116768;28;20126;-37
2021/09/24 05:27:07;;;;;;;14.00;8.10;;;10.50;81.00;;;;;;5118002;28;20032;-41
2021/09/24 05:29:33;;;;;;;15.68;8.77;;;10.50;81.20;;;;;;5117585;28;20042;-37
2021/09/24 05:31:59;;;;;;;17.55;10.77;;;10.40;81.30;;;;;;5117556;28;20027;-41
2021/09/24 05:34:24;;;;;;;19.13;9.55;;;10.40;81.50;;;;;;5117957;28;20032;-38
2021/09/24 05:36:50;;;;;;;15.93;9.48;;;10.40;81.60;;;;;;5117713;28;20034;-41
2021/09/24 05:39:18;;;;;;;14.38;9.10;;;10.50;81.60;;;;;;5117692;28;20327;-38
2021/09/24 05:41:43;;;;;;;21.98;9.80;;;10.50;81.80;;;;;;5117431;28;20399;-37
2021/09/24 05:44:09;;;;;;;17.50;9.73;;;10.50;81.80;;;;;;5117516;28;20036;-37
2021/09/24 05:46:35;;;;;;;15.60;8.43;;;10.50;81.90;;;;;;5117580;28;20319;-37
2021/09/24 05:49:00;;;;;;;15.48;8.88;;;10.50;82.10;;;;;;5117145;28;20537;-41
2021/09/24 05:51:26;;;;;;;19.10;9.23;;;10.50;82.10;;;;;;5117004;28;20032;-41
2021/09/24 05:53:52;;;;;;;17.48;9.82;;;10.50;82.40;;;;;;5117013;28;20031;-40
2021/09/24 05:56:18;;;;;;;15.52;9.43;;;10.50;82.70;;;;;;5117252;28;20043;-37
2021/09/24 05:58:43;;;;;;;16.63;9.05;;;10.50;82.80;;;;;;5117206;28;20036;-41
2021/09/24 06:01:09;;;;;;;18.20;10.27;;;10.50;83.00;;;;;;5116943;28;20370;-41
2021/09/24 06:03:35;;;;;;;13.13;8.60;;;10.50;83.10;;;;;;5117540;28;20035;-37
2021/09/24 06:06:00;;;;;;;14.10;8.05;;;10.50;83.20;;;;;;5116521;28;20092;-37
2021/09/24 06:08:27;;;;;;;15.10;9.77;;;10.50;83.20;;;;;;5117132;28;20027;-41
2021/09/24 06:10:54;;;;;;;15.80;9.80;;;10.50;83.40;;;;;;5116674;28;20031;-41
2021/09/24 06:13:19;;;;;;;16.27;9.60;;;10.50;83.40;;;;;;5116987;28;20032;-40
2021/09/24 06:15:47;;;;;;;20.65;11.40;;;10.50;83.40;;;;;;5116731;28;20293;-37
2021/09/24 06:18:13;;;;;;;21.27;9.65;;;10.50;83.70;;;;;;5117266;28;20472;-37
2021/09/24 06:20:38;;;;;;;16.85;8.60;;;10.50;84.00;;;;;;5116440;28;20031;-37
2021/09/24 06:23:04;;;;;;;19.92;9.85;;;10.50;84.10;;;;;;5117094;28;20085;-36
2021/09/24 06:25:30;;;;;;;19.75;9.52;;;10.50;84.00;;;;;;5116319;28;20093;-38
2021/09/24 06:27:56;;;;;;;19.45;11.18;;;10.50;84.10;;;;;;5116464;28;20075;-37
2021/09/24 06:30:23;;;;;;;16.48;9.50;;;10.50;84.20;;;;;;5116533;28;20027;-37
2021/09/24 06:32:50;;;;;;;16.88;9.65;;;10.50;84.20;;;;;;5116093;28;20074;-37
2021/09/24 06:35:16;;;;;;;20.67;10.25;;;10.50;84.50;;;;;;5116141;28;20024;-38
2021/09/24 06:37:42;;;;;;;15.50;9.90;;;10.60;84.80;;;;;;5116844;28;20040;-40
2021/09/24 06:40:09;;;;;;;13.55;9.48;;;10.50;84.70;;;;;;5116318;28;20430;-40
2021/09/24 06:42:36;;;;;;;18.20;9.93;;;10.60;84.90;;;;;;5081675;28;20090;-38
2021/09/24 06:45:03;;;;;;;15.20;9.60;;;10.60;84.80;;;;;;5116222;28;20032;-38
2021/09/24 06:47:29;;;;;;;14.57;9.20;;;10.60;84.80;;;;;;5116338;28;20375;-38
2021/09/24 06:49:55;;;;;;;15.45;9.60;;;10.70;84.80;;;;;;5115843;28;20027;-38
2021/09/24 06:52:22;;;;;;;15.00;9.25;;;10.70;84.90;;;;;;5116308;28;20027;-37
2021/09/24 06:54:48;;;;;;;16.08;9.35;;;10.70;84.60;;;;;;5115837;28;20051;-38
2021/09/24 06:57:14;;;;;;;16.27;9.43;;;10.70;84.70;;;;;;5116329;28;20082;-37
2021/09/24 06:59:40;;;;;;;17.75;9.77;;;10.70;84.90;;;;;;5116122;28;20369;-38
2021/09/24 07:02:06;;;;;;;17.10;10.23;;;10.70;84.90;;;;;;5116144;28;20345;-37
2021/09/24 07:04:31;;;;;;;18.38;11.15;;;10.80;84.80;;;;;;5115814;28;20276;-41
2021/09/24 07:06:57;;;;;;;29.85;16.70;;;10.80;84.80;;;;;;5116009;28;20411;-38
2021/09/24 07:09:23;;;;;;;30.35;20.02;;;10.80;84.80;;;;;;5123420;27;20418;-37
2021/09/24 07:11:48;;;;;;;34.20;18.70;;;10.80;84.70;;;;;;5120309;27;20023;-41
2021/09/24 07:14:19;;;;;;;23.33;14.73;;;10.80;84.90;;;;;;5136363;27;20023;-37
2021/09/24 07:16:46;;;;;;;14.48;9.73;;;10.90;85.20;;;;;;5126872;27;20451;-37
2021/09/24 07:19:12;;;;;;;14.10;10.57;;;10.90;85.00;;;;;;5115713;28;20034;-37
2021/09/24 07:21:38;;;;;;;15.65;9.93;;;10.90;85.10;;;;;;5115802;28;20035;-40
2021/09/24 07:24:04;;;;;;;14.45;9.48;;;10.90;85.20;;;;;;5125385;28;20046;-37
2021/09/24 07:26:31;;;;;;;14.60;9.27;;;10.90;85.30;;;;;;5136159;27;20135;-38
2021/09/24 07:28:57;;;;;;;14.32;9.98;;;10.90;85.40;;;;;;5135867;28;20031;-37
2021/09/24 07:31:24;;;;;;;14.40;10.13;;;10.90;85.20;;;;;;5136109;28;20039;-41
2021/09/24 07:33:50;;;;;;;16.77;10.75;;;10.90;85.20;;;;;;5134809;28;20331;-42
2021/09/24 07:36:16;;;;;;;18.95;11.32;;;10.80;85.20;;;;;;5135825;28;20303;-42
2021/09/24 07:38:47;;;;;;;16.13;11.32;;;10.80;85.40;;;;;;5136354;28;20083;-41
2021/09/24 07:41:14;;;;;;;22.35;13.48;;;10.80;85.80;;;;;;5135999;28;20031;-40
2021/09/24 07:43:40;;;;;;;17.70;11.90;;;10.80;85.90;;;;;;5132726;28;20031;-38
2021/09/24 07:46:05;;;;;;;15.90;10.68;;;10.80;86.00;;;;;;5135550;27;20023;-37
2021/09/24 07:48:31;;;;;;;15.93;10.23;;;10.80;86.30;;;;;;5138786;27;20023;-38
2021/09/24 07:50:57;;;;;;;16.27;11.43;;;10.80;86.40;;;;;;5140036;27;20023;-42
2021/09/24 07:53:23;;;;;;;15.15;10.40;;;10.80;86.60;;;;;;5139955;27;20016;-42
2021/09/24 07:55:48;;;;;;;14.32;10.10;;;10.80;86.80;;;;;;5139673;27;20565;-37
2021/09/24 07:58:14;;;;;;;17.52;11.15;;;10.80;86.80;;;;;;5139666;27;20038;-38
2021/09/24 08:00:40;;;;;;;18.63;10.65;;;10.80;86.90;;;;;;5139555;27;20035;-37
2021/09/24 08:03:06;;;;;;;18.20;12.00;;;10.80;87.10;;;;;;5139538;27;20031;-41
2021/09/24 08:05:32;;;;;;;21.08;12.20;;;10.80;87.00;;;;;;5139669;27;20054;-38
2021/09/24 08:07:58;;;;;;;16.00;11.48;;;10.80;87.20;;;;;;5139658;27;20039;-37
2021/09/24 08:10:25;;;;;;;17.55;11.25;;;10.80;87.20;;;;;;5139857;27;20023;-37
2021/09/24 08:12:54;;;;;;;18.70;10.68;;;10.80;87.40;;;;;;5139623;27;20039;-37
2021/09/24 08:15:20;;;;;;;15.52;9.90;;;10.80;87.60;;;;;;5139696;27;20076;-41
2021/09/24 08:17:47;;;;;;;17.48;11.55;;;10.80;87.50;;;;;;5139571;27;20110;-37
2021/09/24 08:20:13;;;;;;;15.18;10.18;;;10.80;87.70;;;;;;5139503;27;20084;-38
2021/09/24 08:22:39;;;;;;;15.55;11.02;;;10.80;87.90;;;;;;5139038;27;20039;-37
2021/09/24 08:25:07;;;;;;;19.20;10.32;;;10.80;88.00;;;;;;5139635;27;20038;-41
2021/09/24 08:27:32;;;;;;;19.02;10.40;;;10.80;87.80;;;;;;5139286;27;20431;-42
2021/09/24 08:29:58;;;;;;;15.05;10.50;;;10.80;88.00;;;;;;5139332;27;20188;-41
2021/09/24 08:32:24;;;;;;;40.67;23.35;;;10.70;87.90;;;;;;5139014;27;20058;-39
2021/09/24 08:34:50;;;;;;;18.63;11.38;;;10.70;88.00;;;;;;5139268;27;20027;-41
2021/09/24 08:37:15;;;;;;;16.73;10.75;;;10.70;88.20;;;;;;5138307;27;20035;-37
2021/09/24 08:39:41;;;;;;;16.20;10.52;;;10.70;88.20;;;;;;5139069;27;20085;-40
2021/09/24 08:42:07;;;;;;;17.15;11.27;;;10.70;88.40;;;;;;5139376;27;20063;-40
2021/09/24 08:44:32;;;;;;;18.95;12.35;;;10.80;88.60;;;;;;5139142;27;20467;-40
2021/09/24 08:46:58;;;;;;;18.70;11.57;;;10.80;88.70;;;;;;5138867;27;20109;-41
2021/09/24 08:49:24;;;;;;;16.98;11.13;;;10.80;88.80;;;;;;5138805;27;20411;-41
2021/09/24 08:51:50;;;;;;;20.30;12.32;;;10.80;88.70;;;;;;5138998;27;20062;-41
2021/09/24 08:54:15;;;;;;;16.63;11.02;;;10.80;88.90;;;;;;5138825;27;20054;-41
2021/09/24 08:56:41;;;;;;;17.85;12.05;;;10.80;88.80;;;;;;5138889;27;20039;-41
2021/09/24 08:59:07;;;;;;;16.35;10.60;;;10.90;89.00;;;;;;5138747;27;20035;-40
2021/09/24 09:01:32;;;;;;;12.75;9.40;;;10.90;88.90;;;;;;5137770;27;20327;-41
2021/09/24 09:03:59;;;;;;;21.50;11.60;;;10.90;88.80;;;;;;5138593;27;20140;-41
2021/09/24 09:06:28;;;;;;;19.45;12.02;;;10.90;88.80;;;;;;5138822;27;20043;-41
2021/09/24 09:09:03;;;;;;;17.77;10.85;;;10.90;89.00;;;;;;5138634;27;20020;-41
2021/09/24 09:11:29;;;;;;;17.25;11.85;;;10.90;89.00;;;;;;5138292;27;20335;-38
2021/09/24 09:13:57;;;;;;;18.13;11.27;;;10.80;89.10;;;;;;5138507;27;20034;-39
2021/09/24 09:16:26;;;;;;;15.30;10.55;;;10.80;89.40;;;;;;5138557;27;20043;-36
2021/09/24 09:19:13;;;;;;;19.70;10.90;;;10.80;89.60;;;;;;5138288;27;20056;-41
2021/09/24 09:21:44;;;;;;;20.42;11.02;;;10.80;89.40;;;;;;5138717;27;20178;-37
2021/09/24 09:24:15;;;;;;;17.55;9.77;;;10.80;89.80;;;;;;5139161;27;20368;-40
2021/09/24 09:26:41;;;;;;;16.52;10.30;;;10.80;89.60;;;;;;5138267;27;20035;-37
2021/09/24 09:29:11;;;;;;;17.65;9.95;;;10.80;89.80;;;;;;5138240;27;20072;-37
2021/09/24 09:31:38;;;;;;;13.23;8.88;;;10.80;90.00;;;;;;5138142;27;20031;-41
2021/09/24 09:34:11;;;;;;;17.73;10.30;;;10.80;89.90;;;;;;5137994;27;20027;-41
2021/09/24 09:36:39;;;;;;;13.48;9.52;;;10.80;90.00;;;;;;5138026;27;20058;-36
2021/09/24 09:39:13;;;;;;;15.70;10.02;;;10.80;90.00;;;;;;5131376;27;20096;-37
2021/09/24 09:41:50;;;;;;;13.70;9.10;;;10.80;90.00;;;;;;5129687;27;20057;-37
2021/09/24 09:44:30;;;;;;;17.73;9.57;;;10.80;90.10;;;;;;5136749;27;20492;-38
2021/09/24 09:46:56;;;;;;;18.42;10.48;;;10.80;90.10;;;;;;5137357;27;20040;-37
2021/09/24 09:49:25;;;;;;;14.88;9.82;;;10.80;90.30;;;;;;5137330;27;20019;-38
2021/09/24 09:52:09;;;;;;;17.05;10.68;;;10.80;90.30;;;;;;5137272;27;20023;-40
2021/09/24 09:54:36;;;;;;;14.82;9.82;;;10.80;90.30;;;;;;5135553;27;20107;-41
2021/09/24 09:57:14;;;;;;;13.93;9.30;;;10.80;90.30;;;;;;5137504;27;20034;-41
2021/09/24 09:59:40;;;;;;;14.68;9.20;;;10.90;90.20;;;;;;5134581;27;20061;-41
2021/09/24 10:02:12;;;;;;;12.73;7.85;;;10.90;90.40;;;;;;5137292;27;20035;-41
2021/09/24 10:04:43;;;;;;;13.50;8.27;;;10.90;90.30;;;;;;5137383;27;20030;-41
2021/09/24 10:07:14;;;;;;;17.23;10.02;;;10.90;90.30;;;;;;5137505;27;20282;-37
2021/09/24 10:09:41;;;;;;;16.75;9.68;;;10.90;90.40;;;;;;5137030;27;20027;-37
2021/09/24 10:12:23;;;;;;;12.90;8.40;;;11.00;90.50;;;;;;5137392;27;20031;-38
2021/09/24 10:14:51;;;;;;;16.17;8.93;;;11.00;90.40;;;;;;5133284;27;20099;-37
2021/09/24 10:17:19;;;;;;;12.35;8.30;;;11.00;90.30;;;;;;5136451;27;20035;-37
2021/09/24 10:19:46;;;;;;;13.43;9.20;;;11.00;90.20;;;;;;5136933;27;20035;-38
2021/09/24 10:22:12;;;;;;;13.32;8.65;;;11.00;90.30;;;;;;5137012;27;20062;-38
2021/09/24 10:24:41;;;;;;;11.55;8.02;;;11.00;90.20;;;;;;5136591;27;20035;-36
2021/09/24 10:27:12;;;;;;;11.38;7.85;;;11.10;90.20;;;;;;5136749;27;20425;-38
2021/09/24 10:29:44;;;;;;;13.25;8.00;;;11.10;90.20;;;;;;5136367;27;20019;-37
2021/09/24 10:32:27;;;;;;;13.85;8.68;;;11.10;90.10;;;;;;5136599;27;20091;-37
2021/09/24 10:35:08;;;;;;;12.52;8.00;;;11.20;90.20;;;;;;5136108;27;20389;-37
2021/09/24 10:37:36;;;;;;;10.95;7.90;;;11.20;90.00;;;;;;5136683;27;20042;-38
2021/09/24 10:40:27;;;;;;;12.57;8.02;;;11.20;90.10;;;;;;5136329;27;20331;-38
2021/09/24 10:42:58;;;;;;;13.13;9.05;;;11.30;89.90;;;;;;5126308;27;20035;-38
2021/09/24 10:45:35;;;;;;;15.50;8.77;;;11.30;89.90;;;;;;5136065;27;20038;-38
2021/09/24 10:48:07;;;;;;;12.38;8.77;;;11.30;90.10;;;;;;5137005;27;20367;-43
2021/09/24 10:50:34;;;;;;;14.13;8.90;;;11.30;90.20;;;;;;5135979;27;20076;-41
2021/09/24 10:55:36;;;;;;;12.43;7.97;;;11.40;90.00;;;;;;5136065;27;20376;-40
2021/09/24 10:58:02;;;;;;;19.38;15.13;;;11.50;89.60;;;;;;5136524;27;20039;-41
2021/09/24 11:00:29;;;;;;;12.07;8.40;;;11.50;89.70;;;;;;5135259;27;20031;-39
2021/09/24 11:03:15;;;;;;;13.27;8.15;;;11.50;89.50;;;;;;5136532;27;20374;-39
2021/09/24 11:06:03;;;;;;;12.93;8.35;;;11.60;89.30;;;;;;5136338;27;20129;-37
2021/09/24 11:08:38;;;;;;;12.40;8.65;;;11.60;89.30;;;;;;5136825;27;20042;-41
2021/09/24 11:11:23;;;;;;;11.48;8.43;;;11.70;89.40;;;;;;5117434;27;20015;-41
2021/09/24 11:13:54;;;;;;;9.98;7.72;;;11.70;89.00;;;;;;5136170;27;20037;-38
2021/09/24 11:16:44;;;;;;;11.02;7.80;;;11.70;89.20;;;;;;5136467;27;20027;-38
2021/09/24 11:19:30;;;;;;;12.57;7.07;;;11.80;89.10;;;;;;5126125;27;20482;-37
2021/09/24 11:21:58;;;;;;;10.90;8.10;;;11.90;88.90;;;;;;5136194;27;20027;-41
2021/09/24 11:24:31;;;;;;;10.40;7.88;;;11.90;89.20;;;;;;5135702;27;20027;-40
2021/09/24 11:27:00;;;;;;;11.90;8.98;;;11.90;88.70;;;;;;5135961;27;20572;-42
2021/09/24 11:29:28;;;;;;;13.25;9.02;;;12.00;88.80;;;;;;5136071;27;20027;-37
2021/09/24 11:32:00;;;;;;;11.70;8.07;;;12.00;88.70;;;;;;5129786;28;20135;-38
2021/09/24 11:34:36;;;;;;;12.20;8.75;;;12.10;88.90;;;;;;5127837;28;20375;-42
2021/09/24 11:37:26;;;;;;;13.43;8.40;;;12.20;89.30;;;;;;5136220;28;20322;-41
2021/09/24 11:40:00;;;;;;;12.40;8.85;;;12.20;88.80;;;;;;5136163;28;20319;-43
2021/09/24 11:42:29;;;;;;;12.82;8.25;;;12.30;88.60;;;;;;5136311;28;20308;-42
2021/09/24 11:44:56;;;;;;;11.77;8.48;;;12.40;88.80;;;;;;5136130;28;20041;-41
2021/09/24 11:47:25;;;;;;;13.15;10.05;;;12.50;88.80;;;;;;5135913;28;20041;-41
2021/09/24 11:50:03;;;;;;;17.77;13.07;;;12.50;88.50;;;;;;5135785;28;20023;-42
2021/09/24 11:52:39;;;;;;;15.30;10.80;;;12.70;89.20;;;;;;5117410;28;20035;-38
2021/09/24 11:55:24;;;;;;;12.30;9.13;;;12.80;87.90;;;;;;5135512;28;20090;-36
2021/09/24 11:58:02;;;;;;;13.18;10.13;;;12.90;87.50;;;;;;5135865;28;20092;-36
2021/09/24 12:00:38;;;;;;;13.38;10.80;;;13.00;87.30;;;;;;5136091;28;20039;-36
2021/09/24 12:03:33;;;;;;;14.68;10.45;;;13.10;87.00;;;;;;5136215;28;20399;-41
2021/09/24 12:06:04;;;;;;;10.77;8.85;;;13.20;86.30;;;;;;5133107;28;20049;-41
2021/09/24 12:08:45;;;;;;;13.90;8.48;;;13.20;86.00;;;;;;5135686;28;20491;-37
2021/09/24 12:11:25;;;;;;;16.38;9.73;;;13.30;85.90;;;;;;5135823;28;20035;-41
2021/09/24 12:14:00;;;;;;;12.98;10.57;;;13.40;85.80;;;;;;5135577;28;20055;-40
2021/09/24 12:16:26;;;;;;;18.58;15.18;;;13.40;85.80;;;;;;5135835;28;20107;-42
2021/09/24 12:18:58;;;;;;;12.70;9.30;;;13.50;86.40;;;;;;5135813;28;20140;-38
2021/09/24 12:21:30;;;;;;;16.58;10.93;;;13.60;86.40;;;;;;5135817;28;20330;-40
2021/09/24 12:23:58;;;;;;;12.77;9.55;;;13.80;86.60;;;;;;5135777;28;20291;-41
2021/09/24 12:26:57;;;;;;;14.05;10.77;;;14.00;86.60;;;;;;5135534;28;20042;-39
2021/09/24 12:29:25;;;;;;;12.57;8.50;;;14.20;85.80;;;;;;5103640;28;20042;-40
2021/09/24 12:31:56;;;;;;;11.05;7.70;;;14.40;84.40;;;;;;5110259;28;20031;-37
2021/09/24 12:34:40;;;;;;;14.93;10.38;;;14.50;82.70;;;;;;5125475;27;20039;-41
2021/09/24 12:37:05;;;;;;;12.63;9.55;;;14.60;82.50;;;;;;5119109;28;20391;-42
2021/09/24 12:39:34;;;;;;;11.48;7.70;;;14.70;82.00;;;;;;5118590;28;20038;-38
2021/09/24 12:42:09;;;;;;;19.08;11.10;;;14.70;80.70;;;;;;5118768;28;20421;-37
2021/09/24 12:44:47;;;;;;;12.00;8.88;;;14.80;80.40;;;;;;5118401;28;20055;-37